createdAt,value
2023-08-15T07:00:18.651Z,99.68
2023-08-15T07:01:19.757Z,99.98
2023-08-15T07:02:19.771Z,99.99
2023-08-15T07:03:19.978Z,99.68
2023-08-15T07:04:19.924Z,99.88
2023-08-15T07:05:20.031Z,99.23
2023-08-15T07:06:20.100Z,99.33
2023-08-15T07:07:20.534Z,98.88
2023-08-15T07:08:20.308Z,98.88
2023-08-15T07:09:20.361Z,98.28
2023-08-15T07:10:20.483Z,96.78
2023-08-15T07:11:20.548Z,97.44
2023-08-15T07:12:20.815Z,97.84
2023-08-15T07:13:20.709Z,97.64
2023-08-15T07:14:20.779Z,96.53
2023-08-15T07:15:20.862Z,96.59
2023-08-15T07:16:20.973Z,96.23
2023-08-15T07:17:21.030Z,96.23
2023-08-15T07:18:21.112Z,95.94
2023-08-15T07:19:21.335Z,96.09
2023-08-15T07:20:21.334Z,96.49
2023-08-15T07:21:22.886Z,96.79
2023-08-15T07:22:22.336Z,97.29
2023-08-15T07:23:21.620Z,96.59
2023-08-15T07:24:21.797Z,96.69
2023-08-15T07:25:21.692Z,96.84
2023-08-15T07:26:21.814Z,95.54
2023-08-15T07:27:21.937Z,96.34
2023-08-15T07:28:21.938Z,96.58
2023-08-15T07:29:22.049Z,96.48
2023-08-15T07:30:22.094Z,96.58
2023-08-15T07:31:22.237Z,96.88
2023-08-15T07:32:22.434Z,97.28
2023-08-15T07:33:22.335Z,97.28
2023-08-15T07:34:22.390Z,96.78
2023-08-15T07:35:22.502Z,96.58
2023-08-15T07:36:22.562Z,96.18
2023-08-15T07:37:22.699Z,96.98
2023-08-15T07:38:22.716Z,97.88
2023-08-15T07:39:22.790Z,98.49
2023-08-15T07:40:22.889Z,97.99
2023-08-15T07:41:22.985Z,95.38
2023-08-15T07:42:23.439Z,96.64
2023-08-15T07:43:23.188Z,96.64
2023-08-15T07:44:23.248Z,97.03
2023-08-15T07:45:23.333Z,96.34
2023-08-15T07:46:23.562Z,96.34
2023-08-15T07:47:23.551Z,97.09
2023-08-15T07:48:23.640Z,96.14
2023-08-15T07:49:23.749Z,95.14
2023-08-15T07:50:23.820Z,94.13
2023-08-15T07:51:23.911Z,95.73
2023-08-15T07:52:24.122Z,94.64
2023-08-15T07:53:24.018Z,94.34
2023-08-15T07:54:24.098Z,95.39
2023-08-15T07:55:24.184Z,94.39
2023-08-15T07:56:24.263Z,93.09
2023-08-15T07:57:24.348Z,93.99
2023-08-15T07:58:24.806Z,94.59
2023-08-15T07:59:25.405Z,93.79
2023-08-15T08:00:24.774Z,93.24
2023-08-15T08:01:24.716Z,94.24
2023-08-15T08:02:25.471Z,92.44
2023-08-15T08:03:24.841Z,92.14
2023-08-15T08:04:24.905Z,91.85
2023-08-15T08:05:25.009Z,92.05
2023-08-15T08:06:38.840Z,90.55
2023-08-15T08:07:25.243Z,91.05
2023-08-15T08:08:25.241Z,92.80
2023-08-15T08:09:25.318Z,90.35
2023-08-15T08:10:25.371Z,90.80
2023-08-15T08:11:25.506Z,91.20
2023-08-15T08:12:25.578Z,91.36
2023-08-15T08:13:25.698Z,90.76
2023-08-15T08:14:25.699Z,90.66
2023-08-15T08:15:25.792Z,91.31
2023-08-15T08:16:25.923Z,87.58
2023-08-15T08:17:26.003Z,89.53
2023-08-15T08:18:26.050Z,88.25
2023-08-15T08:19:26.109Z,87.26
2023-08-15T08:20:26.182Z,87.10
2023-08-15T08:21:26.255Z,86.70
2023-08-15T08:22:26.339Z,87.30
2023-08-15T08:23:26.452Z,85.41
2023-08-15T08:24:26.556Z,85.80
2023-08-15T08:25:26.646Z,87.80
2023-08-15T08:26:26.694Z,86.90
2023-08-15T08:27:26.760Z,85.09
2023-08-15T08:28:26.914Z,86.68
2023-08-15T08:29:26.958Z,87.52
2023-08-15T08:30:29.314Z,86.13
2023-08-15T08:31:27.155Z,85.72
2023-08-15T08:32:27.220Z,87.82
2023-08-15T08:33:27.330Z,86.93
2023-08-15T08:34:27.454Z,86.79
2023-08-15T08:35:27.472Z,85.99
2023-08-15T08:36:27.663Z,89.18
2023-08-15T08:37:27.754Z,86.63
2023-08-15T08:38:28.564Z,87.92
2023-08-15T08:39:32.294Z,89.62
2023-08-15T08:40:27.924Z,87.82
2023-08-15T08:41:27.981Z,86.82
2023-08-15T08:42:28.352Z,86.97
2023-08-15T08:43:28.196Z,86.47
2023-08-15T08:44:28.274Z,86.47
2023-08-15T08:45:28.426Z,87.23
2023-08-15T08:46:28.426Z,86.63
2023-08-15T08:47:28.510Z,86.29
2023-08-15T08:48:28.577Z,86.24
2023-08-15T08:49:28.718Z,84.61
2023-08-15T08:50:28.741Z,85.80
2023-08-15T08:51:28.831Z,84.17
2023-08-15T08:52:28.871Z,83.83
2023-08-15T08:53:29.000Z,81.50
2023-08-15T08:54:46.812Z,82.89
2023-08-15T08:55:30.075Z,81.50
2023-08-15T08:56:29.222Z,81.54
2023-08-15T08:57:29.306Z,82.04
2023-08-15T08:58:29.410Z,81.14
2023-08-15T08:59:29.505Z,81.14
2023-08-15T09:00:29.610Z,81.94
2023-08-15T09:01:29.702Z,82.28
2023-08-15T09:02:29.786Z,84.63
2023-08-15T09:03:29.929Z,80.84
2023-08-15T09:04:29.909Z,82.64
2023-08-15T09:05:30.062Z,81.58
2023-08-15T09:06:30.071Z,85.36
2023-08-15T09:07:30.234Z,81.38
2023-08-15T09:08:30.246Z,83.07
2023-08-15T09:09:30.346Z,82.34
2023-08-15T09:10:30.475Z,82.34
2023-08-15T09:11:30.474Z,82.29
2023-08-15T09:12:30.585Z,79.41
2023-08-15T09:13:30.623Z,83.89
2023-08-15T09:14:30.708Z,80.87
2023-08-15T09:15:33.781Z,81.92
2023-08-15T09:16:30.880Z,81.56
2023-08-15T09:17:30.984Z,79.37
2023-08-15T09:18:31.033Z,78.48
2023-08-15T09:19:31.136Z,79.31
2023-08-15T09:20:31.277Z,79.15
2023-08-15T09:21:31.304Z,80.74
2023-08-15T09:22:31.364Z,81.84
2023-08-15T09:23:31.433Z,80.44
2023-08-15T09:24:31.515Z,80.15
2023-08-15T09:25:31.642Z,81.44
2023-08-15T09:26:31.672Z,84.39
2023-08-15T09:27:31.724Z,79.39
2023-08-15T09:28:31.808Z,81.44
2023-08-15T09:29:31.871Z,81.08
2023-08-15T09:30:31.962Z,82.14
2023-08-15T09:31:32.062Z,79.58
2023-08-15T09:32:32.116Z,79.55
2023-08-15T09:33:32.218Z,79.94
2023-08-15T09:34:32.238Z,77.16
2023-08-15T09:35:32.491Z,79.55
2023-08-15T09:36:36.109Z,78.25
2023-08-15T09:37:32.536Z,77.29
2023-08-15T09:38:32.721Z,78.09
2023-08-15T09:39:32.719Z,78.29
2023-08-15T09:40:33.124Z,77.86
2023-08-15T09:41:32.860Z,75.16
2023-08-15T09:42:32.978Z,76.36
2023-08-15T09:43:33.048Z,79.11
2023-08-15T09:44:33.115Z,76.23
2023-08-15T09:45:33.220Z,76.68
2023-08-15T09:46:33.305Z,74.93
2023-08-15T09:47:33.410Z,76.92
2023-08-15T09:48:33.443Z,75.63
2023-08-15T09:49:33.585Z,75.53
2023-08-15T09:50:33.718Z,75.59
2023-08-15T09:51:33.727Z,74.69
2023-08-15T09:52:33.805Z,77.34
2023-08-15T09:53:33.873Z,76.91
2023-08-15T09:54:33.951Z,77.11
2023-08-15T09:55:34.042Z,75.42
2023-08-15T09:56:34.227Z,74.56
2023-08-15T09:57:34.205Z,74.60
2023-08-15T09:58:34.276Z,74.76
2023-08-15T09:59:34.360Z,73.17
2023-08-15T10:00:34.468Z,72.17
2023-08-15T10:01:34.547Z,71.78
2023-08-15T10:02:34.654Z,72.01
2023-08-15T10:03:34.724Z,69.23
2023-08-15T10:04:34.762Z,66.49
2023-08-15T10:05:35.085Z,67.05
2023-08-15T10:06:34.950Z,65.30
2023-08-15T10:07:35.002Z,64.74
2023-08-15T10:08:35.105Z,67.41
2023-08-15T10:09:35.141Z,66.06
2023-08-15T10:10:35.229Z,67.80
2023-08-15T10:11:35.311Z,65.69
2023-08-15T10:12:35.397Z,68.99
2023-08-15T10:13:35.480Z,68.79
2023-08-15T10:14:35.540Z,64.05
2023-08-15T10:15:35.621Z,63.06
2023-08-15T10:16:35.836Z,63.75
2023-08-15T10:17:35.956Z,66.49
2023-08-15T10:18:35.911Z,61.72
2023-08-15T10:19:35.930Z,63.43
2023-08-15T10:20:36.004Z,60.35
2023-08-15T10:21:36.089Z,59.56
2023-08-15T10:22:36.165Z,62.15
2023-08-15T10:23:36.257Z,61.45
2023-08-15T10:24:36.352Z,64.36
2023-08-15T10:25:36.464Z,60.08
2023-08-15T10:26:36.501Z,61.63
2023-08-15T10:27:36.602Z,61.03
2023-08-15T10:28:36.702Z,62.08
2023-08-15T10:29:36.762Z,63.53
2023-08-15T10:30:37.027Z,59.36
2023-08-15T10:31:36.936Z,58.77
2023-08-15T10:32:37.061Z,62.08
2023-08-15T10:33:37.099Z,59.19
2023-08-15T10:34:37.152Z,60.35
2023-08-15T10:35:37.278Z,57.29
2023-08-15T10:36:37.311Z,56.10
2023-08-15T10:37:37.428Z,57.34
2023-08-15T10:38:37.469Z,57.98
2023-08-15T10:39:37.564Z,59.43
2023-08-15T10:40:37.605Z,56.30
2023-08-15T10:41:37.666Z,55.29
2023-08-15T10:42:37.800Z,55.76
2023-08-15T10:43:37.851Z,55.91
2023-08-15T10:44:37.956Z,57.22
2023-08-15T10:45:37.994Z,62.05
2023-08-15T10:46:38.126Z,56.92
2023-08-15T10:47:38.190Z,56.04
2023-08-15T10:48:41.080Z,56.50
2023-08-15T10:49:38.270Z,56.67
2023-08-15T10:50:38.362Z,54.77
2023-08-15T10:51:38.450Z,55.63
2023-08-15T10:52:38.557Z,56.99
2023-08-15T10:53:38.617Z,56.87
2023-08-15T10:54:38.735Z,55.39
2023-08-15T10:55:38.786Z,58.73
2023-08-15T10:56:38.871Z,58.49
2023-08-15T10:57:38.911Z,57.59
2023-08-15T10:58:41.298Z,55.51
2023-08-15T10:59:39.121Z,55.51
2023-08-15T11:00:39.200Z,56.48
2023-08-15T11:01:39.479Z,59.02
2023-08-15T11:02:39.405Z,56.82
2023-08-15T11:03:39.810Z,57.37
2023-08-15T11:04:40.711Z,59.00
2023-08-15T11:05:39.631Z,55.87
2023-08-15T11:06:39.671Z,55.62
2023-08-15T11:07:39.752Z,55.18
2023-08-15T11:08:39.913Z,55.27
2023-08-15T11:09:39.930Z,55.88
2023-08-15T11:10:40.470Z,54.77
2023-08-15T11:11:40.259Z,55.09
2023-08-15T11:12:40.198Z,58.59
2023-08-15T11:13:40.354Z,53.86
2023-08-15T11:14:40.395Z,58.36
2023-08-15T11:15:41.144Z,54.91
2023-08-15T11:16:40.562Z,55.29
2023-08-15T11:17:40.626Z,59.12
2023-08-15T11:18:40.684Z,59.94
2023-08-15T11:19:40.786Z,56.80
2023-08-15T11:20:40.819Z,57.93
2023-08-15T11:21:40.893Z,61.45
2023-08-15T11:22:41.070Z,58.45
2023-08-15T11:23:41.050Z,59.59
2023-08-15T11:24:41.220Z,60.55
2023-08-15T11:25:41.263Z,59.86
2023-08-15T11:26:41.377Z,60.92
2023-08-15T11:27:41.396Z,59.38
2023-08-15T11:28:41.462Z,56.65
2023-08-15T11:29:41.604Z,56.36
2023-08-15T11:30:41.626Z,55.51
2023-08-15T11:31:42.868Z,56.81
2023-08-15T11:32:41.895Z,57.79
2023-08-15T11:33:41.871Z,52.92
2023-08-15T11:34:41.951Z,55.72
2023-08-15T11:35:42.038Z,57.40
2023-08-15T11:36:42.124Z,58.22
2023-08-15T11:37:42.191Z,58.07
2023-08-15T11:38:42.298Z,58.33
2023-08-15T11:39:42.369Z,60.37
2023-08-15T11:40:42.435Z,61.56
2023-08-15T11:41:42.569Z,65.53
2023-08-15T11:42:42.613Z,61.49
2023-08-15T11:43:42.690Z,60.20
2023-08-15T11:44:42.774Z,63.21
2023-08-15T11:45:42.870Z,62.78
2023-08-15T11:47:43.113Z,62.65
2023-08-15T11:48:43.086Z,60.64
2023-08-15T11:49:46.476Z,59.81
2023-08-15T11:50:44.954Z,60.91
2023-08-15T11:51:43.312Z,59.36
2023-08-15T11:52:43.405Z,58.81
2023-08-15T11:53:43.483Z,58.02
2023-08-15T11:54:43.629Z,59.60
2023-08-15T11:55:43.715Z,57.62
2023-08-15T11:56:43.727Z,57.23
2023-08-15T11:57:43.832Z,56.74
2023-08-15T11:58:44.715Z,57.40
2023-08-15T11:59:43.963Z,60.46
2023-08-15T12:00:44.074Z,57.32
2023-08-15T12:01:44.186Z,57.49
2023-08-15T12:02:44.232Z,56.01
2023-08-15T12:03:44.300Z,54.53
2023-08-15T12:04:44.346Z,56.54
2023-08-15T12:05:44.437Z,56.61
2023-08-15T12:06:44.528Z,56.78
2023-08-15T12:07:44.592Z,57.15
2023-08-15T12:08:46.272Z,53.77
2023-08-15T12:09:44.745Z,55.15
2023-08-15T12:10:44.849Z,56.21
2023-08-15T12:11:44.910Z,53.03
2023-08-15T12:12:44.965Z,55.18
2023-08-15T12:13:45.030Z,57.41
2023-08-15T12:14:50.837Z,58.28
2023-08-15T12:15:45.282Z,56.69
2023-08-15T12:16:45.247Z,57.78
2023-08-15T12:17:45.331Z,57.93
2023-08-15T12:18:45.404Z,60.78
2023-08-15T12:19:45.462Z,56.55
2023-08-15T12:20:45.585Z,57.44
2023-08-15T12:21:45.624Z,60.31
2023-08-15T12:22:46.019Z,60.14
2023-08-15T12:23:45.790Z,61.90
2023-08-15T12:24:45.877Z,59.92
2023-08-15T12:25:45.937Z,60.31
2023-08-15T12:26:46.047Z,58.70
2023-08-15T12:27:46.097Z,58.43
2023-08-15T12:28:46.166Z,58.01
2023-08-15T12:30:13.147Z,57.39
2023-08-15T12:30:46.405Z,58.74
2023-08-15T12:31:46.465Z,57.35
2023-08-15T12:32:47.135Z,59.23
2023-08-15T12:33:47.906Z,57.67
2023-08-15T12:34:46.622Z,55.37
2023-08-15T12:35:48.361Z,53.74
2023-08-15T12:36:46.787Z,57.78
2023-08-15T12:37:46.857Z,54.03
2023-08-15T12:38:46.942Z,55.62
2023-08-15T12:39:47.017Z,53.91
2023-08-15T12:40:47.125Z,55.98
2023-08-15T12:41:47.186Z,54.01
2023-08-15T12:42:47.306Z,53.49
2023-08-15T12:43:47.354Z,53.47
2023-08-15T12:44:47.604Z,53.14
2023-08-15T12:45:47.565Z,51.59
2023-08-15T12:46:48.009Z,55.76
2023-08-15T12:47:47.743Z,54.16
2023-08-15T12:48:47.826Z,53.66
2023-08-15T12:49:47.880Z,54.89
2023-08-15T12:50:47.965Z,50.93
2023-08-15T12:51:48.133Z,49.95
2023-08-15T12:52:48.104Z,50.46
2023-08-15T12:53:48.224Z,52.38
2023-08-15T12:54:48.262Z,51.92
2023-08-15T12:55:48.334Z,53.86
2023-08-15T12:56:48.452Z,51.47
2023-08-15T12:57:48.484Z,53.25
2023-08-15T12:58:48.581Z,53.54
2023-08-15T12:59:48.671Z,55.88
2023-08-15T13:00:48.817Z,54.72
2023-08-15T13:01:48.867Z,54.57
2023-08-15T13:02:48.932Z,52.80
2023-08-15T13:03:49.025Z,53.47
2023-08-15T13:04:49.102Z,51.23
2023-08-15T13:05:49.204Z,54.38
2023-08-15T13:06:49.251Z,51.94
2023-08-15T13:07:49.369Z,52.83
2023-08-15T13:08:49.413Z,53.91
2023-08-15T13:09:49.501Z,52.80
2023-08-15T13:10:49.565Z,51.52
2023-08-15T13:11:49.679Z,53.76
2023-08-15T13:12:49.740Z,52.01
2023-08-15T13:13:49.826Z,51.50
2023-08-15T13:14:49.992Z,51.18
2023-08-15T13:15:50.007Z,52.70
2023-08-15T13:16:50.141Z,48.96
2023-08-15T13:17:50.204Z,49.97
2023-08-15T13:18:50.315Z,49.62
2023-08-15T13:19:50.370Z,49.08
2023-08-15T13:20:50.447Z,49.23
2023-08-15T13:21:50.747Z,49.65
2023-08-15T13:22:50.626Z,48.89
2023-08-15T13:23:51.212Z,50.66
2023-08-15T13:24:50.788Z,49.90
2023-08-15T13:25:50.862Z,49.82
2023-08-15T13:26:50.966Z,48.74
2023-08-15T13:27:51.008Z,51.72
2023-08-15T13:28:51.149Z,52.06
2023-08-15T13:29:51.177Z,54.14
2023-08-15T13:30:51.263Z,54.27
2023-08-15T13:31:51.361Z,56.21
2023-08-15T13:32:51.413Z,54.41
2023-08-15T13:33:51.473Z,56.78
2023-08-15T13:34:51.571Z,53.22
2023-08-15T13:35:52.201Z,51.89
2023-08-15T13:36:51.740Z,51.59
2023-08-15T13:37:51.848Z,54.40
2023-08-15T13:38:51.956Z,54.93
2023-08-15T13:39:51.951Z,52.93
2023-08-15T13:40:52.032Z,54.29
2023-08-15T13:41:52.125Z,56.86
2023-08-15T13:42:53.902Z,56.14
2023-08-15T13:43:52.287Z,59.58
2023-08-15T13:44:52.364Z,57.57
2023-08-15T13:45:52.444Z,56.21
2023-08-15T13:46:52.586Z,56.24
2023-08-15T13:47:52.686Z,56.04
2023-08-15T13:48:52.682Z,57.40
2023-08-15T13:49:52.837Z,58.39
2023-08-15T13:50:52.861Z,56.12
2023-08-15T13:51:52.972Z,55.27
2023-08-15T13:52:53.039Z,57.67
2023-08-15T13:53:53.110Z,55.22
2023-08-15T13:54:53.216Z,58.34
2023-08-15T13:55:53.250Z,56.99
2023-08-15T13:56:55.601Z,56.30
2023-08-15T13:57:53.763Z,56.86
2023-08-15T13:58:53.470Z,56.30
2023-08-15T13:59:53.552Z,55.68
2023-08-15T14:00:53.760Z,56.34
2023-08-15T14:01:53.728Z,59.77
2023-08-15T14:02:53.913Z,56.85
2023-08-15T14:03:53.893Z,55.79
2023-08-15T14:04:54.013Z,58.00
2023-08-15T14:05:54.074Z,57.79
2023-08-15T14:06:54.114Z,55.47
2023-08-15T14:07:54.192Z,56.99
2023-08-15T14:08:54.261Z,56.99
2023-08-15T14:09:56.533Z,58.74
2023-08-15T14:10:54.429Z,56.23
2023-08-15T14:11:54.541Z,57.90
2023-08-15T14:12:54.645Z,58.83
2023-08-15T14:13:54.672Z,58.20
2023-08-15T14:14:54.797Z,57.21
2023-08-15T14:15:54.842Z,55.65
2023-08-15T14:16:55.063Z,57.84
2023-08-15T14:17:55.027Z,54.95
2023-08-15T14:18:55.073Z,53.77
2023-08-15T14:19:55.130Z,54.11
2023-08-15T14:20:55.199Z,54.80
2023-08-15T14:21:55.275Z,57.29
2023-08-15T14:22:55.357Z,54.23
2023-08-15T14:23:55.462Z,55.47
2023-08-15T14:24:55.602Z,54.31
2023-08-15T14:25:55.655Z,56.31
2023-08-15T14:26:56.651Z,55.18
2023-08-15T14:27:55.790Z,57.26
2023-08-15T14:28:55.877Z,58.37
2023-08-15T14:29:56.011Z,57.90
2023-08-15T14:30:56.069Z,58.50
2023-08-15T14:31:56.123Z,59.52
2023-08-15T14:32:56.311Z,58.83
2023-08-15T14:33:56.292Z,58.73
2023-08-15T14:34:56.478Z,58.60
2023-08-15T14:35:56.492Z,60.61
2023-08-15T14:36:56.563Z,58.73
2023-08-15T14:37:56.648Z,56.90
2023-08-15T14:38:56.720Z,58.39
2023-08-15T14:39:56.807Z,58.48
2023-08-15T14:40:56.860Z,61.04
2023-08-15T14:41:56.984Z,57.97
2023-08-15T14:42:57.057Z,62.69
2023-08-15T14:43:57.081Z,59.22
2023-08-15T14:44:57.152Z,59.08
2023-08-15T14:45:57.246Z,59.08
2023-08-15T14:46:57.401Z,60.67
2023-08-15T14:47:57.420Z,59.08
2023-08-15T14:48:59.470Z,58.36
2023-08-15T14:49:57.603Z,58.09
2023-08-15T14:50:57.623Z,58.59
2023-08-15T14:51:57.768Z,60.94
2023-08-15T14:52:57.803Z,60.14
2023-08-15T14:53:57.920Z,59.55
2023-08-15T14:54:57.998Z,58.88
2023-08-15T14:55:58.154Z,61.07
2023-08-15T14:56:58.166Z,59.18
2023-08-15T14:57:58.238Z,59.67
2023-08-15T14:58:58.315Z,60.07
2023-08-15T14:59:58.379Z,60.80
2023-08-15T15:00:58.476Z,60.80
2023-08-15T15:01:58.608Z,59.61
2023-08-15T15:02:58.698Z,61.39
2023-08-15T15:03:58.728Z,59.97
2023-08-15T15:04:58.770Z,61.19
2023-08-15T15:05:58.843Z,59.61
2023-08-15T15:06:58.933Z,60.47
2023-08-15T15:07:59.028Z,59.88
2023-08-15T15:08:59.066Z,58.19
2023-08-15T15:09:59.181Z,58.42
2023-08-15T15:10:59.243Z,58.22
2023-08-15T15:11:59.350Z,59.11
2023-08-15T15:12:59.421Z,59.21
2023-08-15T15:13:59.485Z,58.61
2023-08-15T15:14:59.573Z,59.91
2023-08-15T15:15:59.686Z,59.01
2023-08-15T15:16:59.739Z,59.61
2023-08-15T15:17:59.866Z,62.18
2023-08-15T15:18:59.899Z,58.81
2023-08-15T15:19:59.988Z,61.10
2023-08-15T15:21:01.904Z,61.69
2023-08-15T15:22:00.144Z,60.10
2023-08-15T15:23:00.210Z,59.83
2023-08-15T15:24:00.288Z,60.13
2023-08-15T15:25:00.355Z,62.61
2023-08-15T15:26:00.417Z,60.03
2023-08-15T15:27:00.502Z,61.02
2023-08-15T15:28:01.413Z,62.41
2023-08-15T15:29:00.637Z,61.22
2023-08-15T15:30:00.752Z,60.33
2023-08-15T15:31:00.842Z,60.56
2023-08-15T15:32:00.937Z,61.52
2023-08-15T15:33:01.006Z,63.21
2023-08-15T15:34:01.042Z,63.31
2023-08-15T15:35:01.272Z,61.91
2023-08-15T15:36:01.231Z,60.53
2023-08-15T15:37:01.341Z,60.93
2023-08-15T15:38:01.415Z,62.88
2023-08-15T15:39:01.481Z,62.18
2023-08-15T15:40:01.637Z,63.37
2023-08-15T15:41:01.639Z,59.14
2023-08-15T15:42:01.783Z,60.43
2023-08-15T15:43:01.800Z,60.23
2023-08-15T15:44:01.915Z,60.75
2023-08-15T15:45:02.059Z,60.96
2023-08-15T15:46:02.108Z,63.01
2023-08-15T15:47:02.220Z,62.31
2023-08-15T15:48:02.260Z,60.20
2023-08-15T15:49:02.303Z,60.00
2023-08-15T15:50:02.414Z,58.81
2023-08-15T15:51:02.496Z,58.09
2023-08-15T15:52:02.558Z,60.37
2023-08-15T15:53:02.635Z,58.95
2023-08-15T15:54:02.736Z,59.62
2023-08-15T15:55:02.833Z,59.52
2023-08-15T15:56:02.919Z,60.91
2023-08-15T15:57:02.984Z,57.27
2023-08-15T15:58:03.039Z,59.05
2023-08-15T15:59:03.148Z,59.45
2023-08-15T16:00:03.270Z,59.28
2023-08-15T16:01:03.450Z,59.94
2023-08-15T16:02:03.395Z,59.65
2023-08-15T16:03:03.519Z,58.65
2023-08-15T16:04:03.557Z,60.14
2023-08-15T16:05:03.615Z,59.45
2023-08-15T16:06:03.699Z,59.84
2023-08-15T16:07:03.752Z,60.27
2023-08-15T16:08:03.816Z,61.13
2023-08-15T16:09:03.960Z,59.45
2023-08-15T16:10:03.980Z,61.50
2023-08-15T16:11:04.107Z,61.99
2023-08-15T16:12:04.173Z,60.31
2023-08-15T16:13:04.233Z,58.63
2023-08-15T16:14:04.340Z,59.32
2023-08-15T16:15:04.419Z,59.52
2023-08-15T16:16:04.552Z,60.19
2023-08-15T16:17:04.584Z,61.18
2023-08-15T16:18:04.707Z,59.52
2023-08-15T16:19:04.724Z,59.81
2023-08-15T16:20:04.790Z,60.83
2023-08-15T16:21:05.008Z,59.88
2023-08-15T16:22:04.982Z,60.37
2023-08-15T16:23:05.069Z,61.26
2023-08-15T16:24:05.152Z,60.37
2023-08-15T16:25:05.227Z,60.57
2023-08-15T16:26:05.318Z,60.67
2023-08-15T16:27:05.390Z,61.46
2023-08-15T16:28:05.445Z,61.73
2023-08-15T16:29:05.503Z,60.83
2023-08-15T16:30:16.380Z,61.83
2023-08-15T16:31:05.682Z,62.32
2023-08-15T16:32:05.765Z,61.43
2023-08-15T16:33:05.926Z,61.36
2023-08-15T16:34:05.915Z,61.36
2023-08-15T16:35:05.991Z,61.16
2023-08-15T16:36:06.091Z,60.77
2023-08-15T16:37:06.242Z,60.77
2023-08-15T16:38:06.233Z,61.26
2023-08-15T16:39:06.343Z,63.81
2023-08-15T16:40:06.423Z,61.73
2023-08-15T16:41:06.524Z,60.86
2023-08-15T16:42:06.629Z,61.79
2023-08-15T16:43:06.716Z,64.07
2023-08-15T16:44:06.811Z,63.90
2023-08-15T16:45:06.884Z,65.29
2023-08-15T16:46:07.013Z,65.36
2023-08-15T16:47:07.123Z,62.85
2023-08-15T16:48:07.172Z,61.46
2023-08-15T16:49:07.220Z,61.13
2023-08-15T16:50:07.309Z,59.94
2023-08-15T16:51:07.402Z,60.11
2023-08-15T16:52:07.509Z,57.98
2023-08-15T16:53:07.574Z,57.39
2023-08-15T16:54:07.687Z,57.58
2023-08-15T16:55:07.811Z,57.85
2023-08-15T16:56:07.823Z,57.39
2023-08-15T16:57:07.892Z,59.35
2023-08-15T16:58:08.018Z,61.04
2023-08-15T16:59:08.102Z,61.93
2023-08-15T17:00:08.193Z,63.39
2023-08-15T17:01:08.310Z,62.69
2023-08-15T17:02:08.331Z,60.34
2023-08-15T17:03:08.450Z,61.83
2023-08-15T17:04:08.584Z,61.93
2023-08-15T17:05:08.554Z,61.13
2023-08-15T17:06:08.601Z,59.72
2023-08-15T17:07:08.712Z,59.66
2023-08-15T17:08:08.759Z,58.00
2023-08-15T17:09:08.908Z,58.43
2023-08-15T17:10:09.004Z,56.13
2023-08-15T17:11:09.072Z,56.78
2023-08-15T17:12:09.122Z,57.73
2023-08-15T17:13:09.183Z,58.97
2023-08-15T17:14:09.264Z,59.09
2023-08-15T17:15:09.375Z,61.73
2023-08-15T17:16:09.441Z,60.37
2023-08-15T17:17:09.494Z,62.78
2023-08-15T17:18:09.692Z,62.05
2023-08-15T17:19:09.694Z,63.02
2023-08-15T17:20:09.762Z,66.25
2023-08-15T17:21:09.864Z,65.92
2023-08-15T17:22:09.922Z,64.61
2023-08-15T17:23:10.059Z,62.87
2023-08-15T17:24:10.145Z,62.63
2023-08-15T17:25:10.190Z,58.16
2023-08-15T17:26:10.294Z,58.97
2023-08-15T17:27:10.345Z,56.77
2023-08-15T17:28:10.434Z,53.47
2023-08-15T17:29:10.539Z,55.03
2023-08-15T17:30:10.622Z,59.87
2023-08-15T17:31:10.789Z,56.40
2023-08-15T17:32:11.376Z,59.17
2023-08-15T17:33:10.930Z,58.05
2023-08-15T17:34:11.016Z,57.10
2023-08-15T17:35:11.021Z,56.06
2023-08-15T17:36:11.559Z,55.30
2023-08-15T17:37:11.198Z,58.01
2023-08-15T17:38:11.372Z,60.14
2023-08-15T17:39:11.515Z,62.05
2023-08-15T17:40:11.434Z,63.57
2023-08-15T17:41:11.555Z,62.91
2023-08-15T17:42:11.622Z,63.83
2023-08-15T17:43:11.676Z,63.64
2023-08-15T17:44:11.750Z,65.16
2023-08-15T17:45:11.839Z,68.04
2023-08-15T17:46:12.735Z,64.92
2023-08-15T17:47:12.051Z,63.24
2023-08-15T17:48:12.124Z,67.14
2023-08-15T17:49:12.206Z,66.52
2023-08-15T17:50:12.377Z,66.52
2023-08-15T17:51:12.399Z,64.56
2023-08-15T17:52:12.479Z,65.89
2023-08-15T17:53:12.608Z,68.50
2023-08-15T17:54:12.634Z,68.04
2023-08-15T17:55:12.735Z,67.57
2023-08-15T17:56:12.809Z,68.10
2023-08-15T17:57:12.940Z,69.69
2023-08-15T17:58:12.987Z,69.29
2023-08-15T17:59:13.111Z,68.53
2023-08-15T18:00:13.973Z,69.73
2023-08-15T18:01:13.247Z,71.35
2023-08-15T18:02:13.345Z,70.65
2023-08-15T18:03:13.526Z,72.05
2023-08-15T18:04:13.534Z,72.58
2023-08-15T18:05:13.535Z,73.38
2023-08-15T18:06:13.652Z,73.18
2023-08-15T18:07:13.743Z,73.91
2023-08-15T18:08:13.825Z,74.41
2023-08-15T18:09:13.919Z,74.34
2023-08-15T18:10:14.057Z,74.94
2023-08-15T18:11:14.116Z,74.84
2023-08-15T18:12:14.134Z,74.18
2023-08-15T18:13:14.202Z,73.68
2023-08-15T18:14:14.290Z,74.28
2023-08-15T18:15:14.397Z,74.58
2023-08-15T18:16:14.469Z,74.21
2023-08-15T18:17:15.340Z,74.21
2023-08-15T18:18:14.710Z,74.51
2023-08-15T18:19:14.748Z,74.85
2023-08-15T18:20:14.779Z,75.45
2023-08-15T18:21:14.846Z,75.85
2023-08-15T18:22:15.066Z,76.38
2023-08-15T18:23:14.999Z,76.78
2023-08-15T18:24:15.074Z,77.98
2023-08-15T18:25:15.155Z,79.61
2023-08-15T18:26:15.257Z,78.61
2023-08-15T18:27:15.316Z,78.81
2023-08-15T18:28:15.379Z,79.41
2023-08-15T18:29:15.481Z,79.32
2023-08-15T18:30:15.514Z,79.65
2023-08-15T18:31:15.642Z,79.75
2023-08-15T18:32:15.689Z,80.55
2023-08-15T18:33:15.852Z,80.65
2023-08-15T18:34:15.867Z,81.29
2023-08-15T18:35:15.967Z,81.79
2023-08-15T18:36:16.035Z,81.89
2023-08-15T18:37:16.094Z,82.59
2023-08-15T18:38:16.166Z,83.79
2023-08-15T18:39:16.274Z,83.43
2023-08-15T18:40:16.329Z,83.53
2023-08-15T18:41:16.442Z,83.63
2023-08-15T18:42:16.516Z,83.53
2023-08-15T18:43:17.510Z,83.73
2023-08-15T18:44:16.717Z,83.87
2023-08-15T18:45:16.800Z,84.27
2023-08-15T18:46:16.925Z,84.77
2023-08-15T18:47:17.011Z,84.77
2023-08-15T18:48:17.148Z,84.67
2023-08-15T18:49:17.163Z,85.01
2023-08-15T18:50:17.225Z,84.41
2023-08-15T18:51:17.311Z,85.01
2023-08-15T18:52:17.414Z,85.11
2023-08-15T18:53:17.445Z,84.61
2023-08-15T18:54:17.562Z,84.85
2023-08-15T18:55:17.689Z,84.95
2023-08-15T18:56:17.701Z,85.15
2023-08-15T18:57:17.807Z,86.25
2023-08-15T18:58:17.874Z,86.85
2023-08-15T18:59:17.993Z,87.20
